createdAt,value
2019-06-01T00:00:10.307Z,17.60
2019-06-01T00:02:28.133Z,17.70
2019-06-01T00:04:58.498Z,17.60
2019-06-01T00:07:29.050Z,17.50
2019-06-01T00:09:59.382Z,17.50
2019-06-01T00:12:29.481Z,17.50
2019-06-01T00:14:59.705Z,17.50
2019-06-01T00:17:29.853Z,17.50
2019-06-01T00:19:59.999Z,17.50
2019-06-01T00:22:30.247Z,17.50
2019-06-01T00:25:00.748Z,17.40
2019-06-01T00:27:31.398Z,17.40
2019-06-01T00:30:02.335Z,17.30
2019-06-01T00:32:33.117Z,17.40
2019-06-01T00:35:03.761Z,17.30
2019-06-01T00:37:33.928Z,17.30
2019-06-01T00:40:04.834Z,17.30
2019-06-01T00:42:35.187Z,17.30
2019-06-01T00:45:06.415Z,17.30
2019-06-01T00:47:37.042Z,17.20
2019-06-01T00:50:08.404Z,17.20
2019-06-01T00:52:38.607Z,17.20
2019-06-01T00:55:08.990Z,17.10
2019-06-01T00:57:39.192Z,17.10
2019-06-01T01:00:12.883Z,17.10
2019-06-01T01:02:44.019Z,17.10
2019-06-01T01:05:18.584Z,17.10
2019-06-01T01:07:48.890Z,17.10
2019-06-01T01:10:20.481Z,17.10
2019-06-01T01:13:08.568Z,17.00
2019-06-01T01:15:38.871Z,17.00
2019-06-01T01:18:09.814Z,17.00
2019-06-01T01:20:40.196Z,17.00
2019-06-01T01:23:10.508Z,17.00
2019-06-01T01:25:40.690Z,17.00
2019-06-01T01:28:10.976Z,17.00
2019-06-01T01:30:41.947Z,17.00
2019-06-01T01:33:12.134Z,16.90
2019-06-01T01:35:42.500Z,16.90
2019-06-01T01:38:12.872Z,16.90
2019-06-01T01:40:43.614Z,16.90
2019-06-01T01:43:13.980Z,16.80
2019-06-01T01:45:44.612Z,16.80
2019-06-01T01:48:14.852Z,16.70
2019-06-01T01:50:45.067Z,16.70
2019-06-01T01:53:15.521Z,16.70
2019-06-01T01:55:46.086Z,16.70
2019-06-01T01:58:16.819Z,16.80
2019-06-01T02:00:48.795Z,16.80
2019-06-01T02:03:19.112Z,16.70
2019-06-01T02:05:50.670Z,16.70
2019-06-01T02:08:21.252Z,16.70
2019-06-01T02:10:51.499Z,16.70
2019-06-01T02:13:21.952Z,16.60
2019-06-01T02:15:52.357Z,16.60
2019-06-01T02:18:23.242Z,16.60
2019-06-01T02:20:54.387Z,16.50
2019-06-01T02:23:25.075Z,16.50
2019-06-01T02:25:55.250Z,16.50
2019-06-01T02:28:25.459Z,16.50
2019-06-01T02:30:56.156Z,16.50
2019-06-01T02:33:26.911Z,16.40
2019-06-01T02:35:58.083Z,16.40
2019-06-01T02:38:28.936Z,16.40
2019-06-01T02:41:01.023Z,16.40
2019-06-01T02:43:30.810Z,16.40
2019-06-01T02:46:02.768Z,16.40
2019-06-01T02:48:33.661Z,16.40
2019-06-01T02:51:04.047Z,16.40
2019-06-01T02:53:34.336Z,16.40
2019-06-01T02:56:06.098Z,16.30
2019-06-01T02:58:36.931Z,16.30
2019-06-01T03:01:56.867Z,16.30
2019-06-01T03:04:17.908Z,16.30
2019-06-01T03:06:50.703Z,16.20
2019-06-01T03:09:22.556Z,16.20
2019-06-01T03:11:55.506Z,16.20
2019-06-01T03:14:28.560Z,16.20
2019-06-01T03:17:01.890Z,16.20
2019-06-01T03:19:34.561Z,16.10
2019-06-01T03:22:08.639Z,16.10
2019-06-01T03:24:39.156Z,16.10
2019-06-01T03:27:12.622Z,16.10
2019-06-01T03:29:45.796Z,16.10
2019-06-01T03:32:34.075Z,16.10
2019-06-01T03:34:49.297Z,16.10
2019-06-01T03:37:19.630Z,16.20
2019-06-01T03:39:50.308Z,16.20
2019-06-01T03:42:20.594Z,16.20
2019-06-01T03:44:50.866Z,16.20
2019-06-01T03:47:21.322Z,16.20
2019-06-01T03:49:51.666Z,16.20
2019-06-01T03:52:21.938Z,16.20
2019-06-01T03:54:52.342Z,16.20
2019-06-01T03:57:22.607Z,16.30
2019-06-01T03:59:52.865Z,16.30
2019-06-01T04:02:32.653Z,16.30
2019-06-01T04:04:55.038Z,16.30
2019-06-01T04:07:25.178Z,16.40
2019-06-01T04:09:55.588Z,16.40
2019-06-01T04:12:27.220Z,16.40
2019-06-01T04:14:57.370Z,16.40
2019-06-01T04:17:27.960Z,16.50
2019-06-01T04:19:58.364Z,16.50
2019-06-01T04:22:28.479Z,16.50
2019-06-01T04:24:58.773Z,16.60
2019-06-01T04:27:29.470Z,16.60
2019-06-01T04:29:59.786Z,16.60
2019-06-01T04:32:30.047Z,16.70
2019-06-01T04:35:01.163Z,16.70
2019-06-01T04:37:31.446Z,16.70
2019-06-01T04:40:01.828Z,16.80
2019-06-01T04:42:32.086Z,16.80
2019-06-01T04:45:04.307Z,16.90
2019-06-01T04:47:34.477Z,16.90
2019-06-01T04:50:06.593Z,16.90
2019-06-01T04:52:36.962Z,17.00
2019-06-01T04:55:08.972Z,17.00
2019-06-01T04:57:39.309Z,17.10
2019-06-01T05:00:24.034Z,17.10
2019-06-01T05:02:42.180Z,17.20
2019-06-01T05:05:13.376Z,17.20
2019-06-01T05:07:43.699Z,17.40
2019-06-01T05:10:16.003Z,17.40
2019-06-01T05:12:47.279Z,17.50
2019-06-01T05:15:17.855Z,17.60
2019-06-01T05:17:48.193Z,17.60
2019-06-01T05:20:19.847Z,17.70
2019-06-01T05:22:50.032Z,17.70
2019-06-01T05:25:20.350Z,17.80
2019-06-01T05:27:50.779Z,17.80
2019-06-01T05:30:21.337Z,17.90
2019-06-01T05:32:51.946Z,18.00
2019-06-01T05:35:24.037Z,18.00
2019-06-01T05:37:56.017Z,18.10
2019-06-01T05:40:26.506Z,18.20
2019-06-01T05:42:57.789Z,18.20
2019-06-01T05:45:28.099Z,18.40
2019-06-01T05:47:58.558Z,18.50
2019-06-01T05:50:30.002Z,18.60
2019-06-01T05:53:00.468Z,18.90
2019-06-01T05:55:31.707Z,18.80
2019-06-01T05:58:02.884Z,18.80
2019-06-01T06:00:40.225Z,18.80
2019-06-01T06:03:12.805Z,18.90
2019-06-01T06:05:42.894Z,19.00
2019-06-01T06:08:14.314Z,19.10
2019-06-01T06:10:44.941Z,19.20
2019-06-01T06:13:15.436Z,19.30
2019-06-01T06:15:46.178Z,19.30
2019-06-01T06:18:17.768Z,19.40
2019-06-01T06:20:48.273Z,19.60
2019-06-01T06:23:18.629Z,20.90
2019-06-01T06:25:48.943Z,22.00
2019-06-01T06:28:20.795Z,22.60
2019-06-01T06:30:56.261Z,23.20
2019-06-01T06:33:26.693Z,24.10
2019-06-01T06:35:57.401Z,24.80
2019-06-01T06:38:27.714Z,25.30
2019-06-01T06:40:57.967Z,25.90
2019-06-01T06:43:32.882Z,26.30
2019-06-01T06:46:00.428Z,26.60
2019-06-01T06:48:30.685Z,26.80
2019-06-01T06:51:01.798Z,27.20
2019-06-01T06:53:35.247Z,27.30
2019-06-01T06:56:05.459Z,27.60
2019-06-01T06:58:36.936Z,27.50
2019-06-01T07:01:11.794Z,28.10
2019-06-01T07:03:39.523Z,28.70
2019-06-01T07:06:09.987Z,28.80
2019-06-01T07:08:40.422Z,28.60
2019-06-01T07:11:12.098Z,28.60
2019-06-01T07:13:43.150Z,28.70
2019-06-01T07:16:14.505Z,28.70
2019-06-01T07:18:45.274Z,29.20
2019-06-01T07:21:15.999Z,29.70
2019-06-01T07:23:46.165Z,29.70
2019-06-01T07:26:17.132Z,29.20
2019-06-01T07:28:47.480Z,29.00
2019-06-01T07:31:18.104Z,29.10
2019-06-01T07:33:49.091Z,29.20
2019-06-01T07:36:20.248Z,29.40
2019-06-01T07:38:50.857Z,29.30
2019-06-01T07:41:22.460Z,29.20
2019-06-01T07:43:52.787Z,29.40
2019-06-01T07:46:23.103Z,29.30
2019-06-01T07:48:53.518Z,29.00
2019-06-01T07:51:25.117Z,29.00
2019-06-01T07:53:55.708Z,29.40
2019-06-01T07:56:26.516Z,29.20
2019-06-01T07:58:57.109Z,28.60
2019-06-01T08:01:29.096Z,27.80
2019-06-01T08:03:59.282Z,28.00
2019-06-01T08:06:30.919Z,27.80
2019-06-01T08:09:01.474Z,27.90
2019-06-01T08:11:33.401Z,27.00
2019-06-01T08:14:04.185Z,26.80
2019-06-01T08:16:34.447Z,26.40
2019-06-01T08:19:04.871Z,26.10
2019-06-01T08:21:35.156Z,25.70
2019-06-01T08:24:05.651Z,25.70
2019-06-01T08:26:36.005Z,25.70
2019-06-01T08:29:06.759Z,25.50
2019-06-01T08:31:37.323Z,25.50
2019-06-01T08:34:08.013Z,25.40
2019-06-01T08:36:39.029Z,25.10
2019-06-01T08:39:09.467Z,24.90
2019-06-01T08:41:39.998Z,24.80
2019-06-01T08:44:10.898Z,24.90
2019-06-01T08:46:41.401Z,24.90
2019-06-01T08:49:12.104Z,24.80
2019-06-01T08:51:42.611Z,24.80
2019-06-01T08:54:12.883Z,24.80
2019-06-01T08:56:43.182Z,24.90
2019-06-01T08:59:13.771Z,24.90
2019-06-01T09:01:44.152Z,25.00
2019-06-01T09:04:14.349Z,25.10
2019-06-01T09:06:44.793Z,25.10
2019-06-01T09:09:15.122Z,25.20
2019-06-01T09:11:45.249Z,25.10
2019-06-01T09:14:15.680Z,25.20
2019-06-01T09:16:46.332Z,25.20
2019-06-01T09:19:16.612Z,25.10
2019-06-01T09:21:46.845Z,25.00
2019-06-01T09:24:17.412Z,25.10
2019-06-01T09:26:47.699Z,25.10
2019-06-01T09:29:18.532Z,25.00
2019-06-01T09:31:49.057Z,24.80
2019-06-01T09:34:19.325Z,24.60
2019-06-01T09:36:49.823Z,24.60
2019-06-01T09:39:20.744Z,24.70
2019-06-01T09:41:51.080Z,24.70
2019-06-01T09:44:21.532Z,24.70
2019-06-01T09:46:51.904Z,24.70
2019-06-01T09:49:22.120Z,24.70
2019-06-01T09:51:52.616Z,24.50
2019-06-01T09:54:23.351Z,24.60
2019-06-01T09:56:53.713Z,24.60
2019-06-01T09:59:24.094Z,24.70
2019-06-01T10:01:54.478Z,24.70
2019-06-01T10:04:25.012Z,24.50
2019-06-01T10:06:55.802Z,24.50
2019-06-01T10:09:26.203Z,24.50
2019-06-01T10:11:56.410Z,24.50
2019-06-01T10:14:26.557Z,24.50
2019-06-01T10:16:56.617Z,24.60
2019-06-01T10:19:27.984Z,24.60
2019-06-01T10:21:58.274Z,24.60
2019-06-01T10:24:28.757Z,24.60
2019-06-01T10:26:59.207Z,24.50
2019-06-01T10:29:30.510Z,24.60
2019-06-01T10:32:02.006Z,24.60
2019-06-01T10:34:33.536Z,24.60
2019-06-01T10:37:05.122Z,24.60
2019-06-01T10:39:35.711Z,24.50
2019-06-01T10:42:06.620Z,24.50
2019-06-01T10:44:41.505Z,24.50
2019-06-01T10:47:09.052Z,24.40
2019-06-01T10:49:40.105Z,24.50
2019-06-01T10:52:10.577Z,24.50
2019-06-01T10:54:40.840Z,24.50
2019-06-01T10:57:13.029Z,24.50
2019-06-01T10:59:43.821Z,24.50
2019-06-01T11:02:14.984Z,24.60
2019-06-01T11:05:08.536Z,24.60
2019-06-01T11:07:41.017Z,24.50
2019-06-01T11:10:14.412Z,24.40
2019-06-01T11:12:44.937Z,24.40
2019-06-01T11:15:17.069Z,24.40
2019-06-01T11:17:48.594Z,24.40
2019-06-01T11:20:19.080Z,24.40
2019-06-01T11:22:49.947Z,24.40
2019-06-01T11:25:20.531Z,24.50
2019-06-01T11:27:51.165Z,24.50
2019-06-01T11:30:21.740Z,24.50
2019-06-01T11:32:52.059Z,24.50
2019-06-01T11:35:22.643Z,24.50
2019-06-01T11:37:52.945Z,24.50
2019-06-01T11:40:23.667Z,24.50
2019-06-01T11:42:54.333Z,24.60
2019-06-01T11:45:24.594Z,24.60
2019-06-01T11:47:54.972Z,24.60
2019-06-01T11:50:25.396Z,24.60
2019-06-01T11:52:56.274Z,24.60
2019-06-01T11:55:26.584Z,24.60
2019-06-01T11:57:56.964Z,24.60
2019-06-01T12:00:27.625Z,24.70
2019-06-01T12:02:57.988Z,24.60
2019-06-01T12:05:28.381Z,24.60
2019-06-01T12:07:59.490Z,24.60
2019-06-01T12:10:29.761Z,24.60
2019-06-01T12:12:59.953Z,24.60
2019-06-01T12:15:30.276Z,24.60
2019-06-01T12:18:00.677Z,24.60
2019-06-01T12:20:31.355Z,24.60
2019-06-01T12:23:01.757Z,24.60
2019-06-01T12:25:32.038Z,24.60
2019-06-01T12:28:02.566Z,24.60
2019-06-01T12:30:32.747Z,24.60
2019-06-01T12:33:03.013Z,24.60
2019-06-01T12:35:34.755Z,24.70
2019-06-01T12:38:06.959Z,24.80
2019-06-01T12:40:37.024Z,24.70
2019-06-01T12:43:07.311Z,24.70
2019-06-01T12:45:37.495Z,24.70
2019-06-01T12:48:07.960Z,24.80
2019-06-01T12:50:39.882Z,24.80
2019-06-01T12:53:10.364Z,24.80
2019-06-01T12:55:41.110Z,24.80
2019-06-01T12:58:11.323Z,24.90
2019-06-01T13:00:42.049Z,24.90
2019-06-01T13:03:12.564Z,24.90
2019-06-01T13:05:43.580Z,24.90
2019-06-01T13:08:14.027Z,24.90
2019-06-01T13:10:45.122Z,24.90
2019-06-01T13:13:15.709Z,24.90
2019-06-01T13:15:45.832Z,25.00
2019-06-01T13:18:16.101Z,25.00
2019-06-01T13:20:47.658Z,25.00
2019-06-01T13:23:18.368Z,24.90
2019-06-01T13:25:49.662Z,24.90
2019-06-01T13:28:35.020Z,24.90
2019-06-01T13:30:52.971Z,24.90
2019-06-01T13:33:23.484Z,25.00
2019-06-01T13:35:54.436Z,25.00
2019-06-01T13:38:24.975Z,25.00
2019-06-01T13:40:55.496Z,25.00
2019-06-01T13:43:27.199Z,25.00
2019-06-01T13:45:58.312Z,25.00
2019-06-01T13:48:28.844Z,25.00
2019-06-01T13:50:59.150Z,25.00
2019-06-01T13:53:29.514Z,25.00
2019-06-01T13:55:59.678Z,24.90
2019-06-01T13:58:30.149Z,24.90
2019-06-01T14:01:01.191Z,24.90
2019-06-01T14:03:31.565Z,25.00
2019-06-01T14:06:01.683Z,25.00
2019-06-01T14:08:32.176Z,25.00
2019-06-01T14:11:02.496Z,25.10
2019-06-01T14:13:32.734Z,25.10
2019-06-01T14:16:03.482Z,25.10
2019-06-01T14:18:33.913Z,25.00
2019-06-01T14:21:04.225Z,25.10
2019-06-01T14:23:35.232Z,25.10
2019-06-01T14:26:05.677Z,25.10
2019-06-01T14:28:35.984Z,25.10
2019-06-01T14:31:06.715Z,25.10
2019-06-01T14:33:36.967Z,25.10
2019-06-01T14:36:07.416Z,25.20
2019-06-01T14:38:47.160Z,25.10
2019-06-01T14:41:09.801Z,25.10
2019-06-01T14:43:40.253Z,25.10
2019-06-01T14:46:10.632Z,25.10
2019-06-01T14:48:41.039Z,25.10
2019-06-01T14:51:11.409Z,25.10
2019-06-01T14:53:41.803Z,25.10
2019-06-01T14:56:12.602Z,25.10
2019-06-01T14:58:42.773Z,25.10
2019-06-01T15:01:28.931Z,25.10
2019-06-01T15:03:45.845Z,25.10
2019-06-01T15:06:19.982Z,25.10
2019-06-01T15:09:07.675Z,25.00
2019-06-01T15:11:20.197Z,25.10
2019-06-01T15:13:50.849Z,25.10
2019-06-01T15:16:21.165Z,25.10
2019-06-01T15:18:51.620Z,25.10
2019-06-01T15:21:22.264Z,25.10
2019-06-01T15:23:53.834Z,25.00
2019-06-01T15:26:24.496Z,25.10
2019-06-01T15:28:54.879Z,25.00
2019-06-01T15:31:25.995Z,25.00
2019-06-01T15:33:57.362Z,25.00
2019-06-01T15:36:27.845Z,25.00
2019-06-01T15:38:58.271Z,25.00
2019-06-01T15:41:28.638Z,25.00
2019-06-01T15:43:59.162Z,25.00
2019-06-01T15:46:29.488Z,25.00
2019-06-01T15:49:00.123Z,25.00
2019-06-01T15:51:30.787Z,25.00
2019-06-01T15:54:01.279Z,25.00
2019-06-01T15:56:32.747Z,24.90
2019-06-01T15:59:03.228Z,24.90
2019-06-01T16:01:34.039Z,24.90
2019-06-01T16:04:05.181Z,24.90
2019-06-01T16:06:35.640Z,24.90
2019-06-01T16:09:09.377Z,24.90
2019-06-01T16:11:40.860Z,24.90
2019-06-01T16:14:11.155Z,24.80
2019-06-01T16:16:41.546Z,24.80
2019-06-01T16:19:12.072Z,24.80
2019-06-01T16:21:43.464Z,24.80
2019-06-01T16:24:16.161Z,24.80
2019-06-01T16:26:46.881Z,24.80
2019-06-01T16:29:17.676Z,24.80
2019-06-01T16:31:48.331Z,24.80
2019-06-01T16:34:18.764Z,24.80
2019-06-01T16:36:49.149Z,24.80
2019-06-01T16:39:19.699Z,24.80
2019-06-01T16:41:51.774Z,24.80
2019-06-01T16:44:22.729Z,24.70
2019-06-01T16:46:53.466Z,24.70
2019-06-01T16:49:27.143Z,24.60
2019-06-01T16:51:58.765Z,24.60
2019-06-01T16:54:29.459Z,24.60
2019-06-01T16:57:00.161Z,24.60
2019-06-01T16:59:30.599Z,24.60
2019-06-01T17:02:01.139Z,24.60
2019-06-01T17:04:33.536Z,24.60
2019-06-01T17:07:05.641Z,24.60
2019-06-01T17:09:36.165Z,24.50
2019-06-01T17:12:07.235Z,24.50
2019-06-01T17:14:37.828Z,24.50
2019-06-01T17:17:08.154Z,24.50
2019-06-01T17:19:38.893Z,24.50
2019-06-01T17:22:11.073Z,24.50
2019-06-01T17:24:41.930Z,24.50
2019-06-01T17:27:12.179Z,24.50
2019-06-01T17:29:42.684Z,24.50
2019-06-01T17:32:23.616Z,24.50
2019-06-01T17:34:45.142Z,24.50
2019-06-01T17:37:20.460Z,24.40
2019-06-01T17:39:50.769Z,24.40
2019-06-01T17:42:21.278Z,24.40
2019-06-01T17:44:51.715Z,24.40
2019-06-01T17:47:22.252Z,24.40
2019-06-01T17:49:52.722Z,24.30
2019-06-01T17:52:23.372Z,24.30
2019-06-01T17:54:53.609Z,24.30
2019-06-01T17:57:24.120Z,24.30
2019-06-01T17:59:54.397Z,24.20
2019-06-01T18:02:24.864Z,24.20
2019-06-01T18:04:55.136Z,24.20
2019-06-01T18:07:25.943Z,24.20
2019-06-01T18:09:56.408Z,24.10
2019-06-01T18:12:26.783Z,24.10
2019-06-01T18:14:57.470Z,24.10
2019-06-01T18:17:28.076Z,24.10
2019-06-01T18:19:58.417Z,24.00
2019-06-01T18:22:29.247Z,24.00
2019-06-01T18:24:59.729Z,24.00
2019-06-01T18:27:30.279Z,23.90
2019-06-01T18:30:00.758Z,23.90
2019-06-01T18:32:31.347Z,23.80
2019-06-01T18:35:02.955Z,23.80
2019-06-01T18:37:33.637Z,23.80
2019-06-01T18:40:05.510Z,23.70
2019-06-01T18:42:36.982Z,23.70
2019-06-01T18:45:09.711Z,23.70
2019-06-01T18:47:40.857Z,23.60
2019-06-01T18:50:16.156Z,23.60
2019-06-01T18:52:44.848Z,23.50
2019-06-01T18:55:16.742Z,23.50
2019-06-01T18:57:50.565Z,23.40
2019-06-01T19:00:22.468Z,23.40
2019-06-01T19:02:53.409Z,23.30
2019-06-01T19:05:23.990Z,23.30
2019-06-01T19:07:54.697Z,23.20
2019-06-01T19:10:25.045Z,23.20
2019-06-01T19:12:55.801Z,23.20
2019-06-01T19:15:28.813Z,23.10
2019-06-01T19:17:58.621Z,23.10
2019-06-01T19:20:33.030Z,23.00
2019-06-01T19:23:01.576Z,23.00
2019-06-01T19:25:31.767Z,22.90
2019-06-01T19:28:02.180Z,22.90
2019-06-01T19:30:37.841Z,22.80
2019-06-01T19:33:13.579Z,22.80
2019-06-01T19:35:42.479Z,22.80
2019-06-01T19:38:13.404Z,22.70
2019-06-01T19:40:44.155Z,22.70
2019-06-01T19:43:15.671Z,22.70
2019-06-01T19:45:46.530Z,22.60
2019-06-01T19:48:18.624Z,22.60
2019-06-01T19:50:49.247Z,22.60
2019-06-01T19:53:19.935Z,22.50
2019-06-01T19:55:50.284Z,22.50
2019-06-01T19:58:20.767Z,22.40
2019-06-01T20:00:51.751Z,22.40
2019-06-01T20:03:23.861Z,22.30
2019-06-01T20:05:54.449Z,22.30
2019-06-01T20:08:24.656Z,22.20
2019-06-01T20:10:55.324Z,22.20
2019-06-01T20:13:25.594Z,22.20
2019-06-01T20:15:56.324Z,22.10
2019-06-01T20:18:26.790Z,22.10
2019-06-01T20:20:57.301Z,22.00
2019-06-01T20:23:27.638Z,22.00
2019-06-01T20:25:58.560Z,22.00
2019-06-01T20:28:28.843Z,21.90
2019-06-01T20:31:11.821Z,21.80
2019-06-01T20:33:42.821Z,21.80
2019-06-01T20:36:13.983Z,21.80
2019-06-01T20:38:44.642Z,21.70
2019-06-01T20:41:16.853Z,21.70
2019-06-01T20:43:47.246Z,21.60
2019-06-01T20:46:18.863Z,21.60
2019-06-01T20:48:49.518Z,21.50
2019-06-01T20:51:20.981Z,21.50
2019-06-01T20:53:51.362Z,21.50
2019-06-01T20:56:21.726Z,21.50
2019-06-01T20:58:52.200Z,21.40
2019-06-01T21:01:23.946Z,21.40
2019-06-01T21:03:54.498Z,21.30
2019-06-01T21:06:25.029Z,21.30
2019-06-01T21:08:56.083Z,21.20
2019-06-01T21:11:26.405Z,21.20
2019-06-01T21:13:56.713Z,21.20
2019-06-01T21:16:27.420Z,21.10
2019-06-01T21:18:58.525Z,21.00
2019-06-01T21:21:29.180Z,21.00
2019-06-01T21:23:59.473Z,20.80
2019-06-01T21:26:30.075Z,20.90
2019-06-01T21:29:00.340Z,20.80
2019-06-01T21:31:30.612Z,20.70
2019-06-01T21:34:00.723Z,20.70
2019-06-01T21:36:31.653Z,20.70
2019-06-01T21:39:02.354Z,20.70
2019-06-01T21:41:32.658Z,20.60
2019-06-01T21:44:03.135Z,20.60
2019-06-01T21:46:33.491Z,20.50
2019-06-01T21:49:03.757Z,20.50
2019-06-01T21:51:33.970Z,20.40
2019-06-01T21:54:04.380Z,20.40
2019-06-01T21:56:34.583Z,20.30
2019-06-01T21:59:05.362Z,20.20
2019-06-01T22:01:35.723Z,20.10
2019-06-01T22:04:06.306Z,20.10
2019-06-01T22:06:37.051Z,20.10
2019-06-01T22:09:08.539Z,20.00
2019-06-01T22:11:39.225Z,20.00
2019-06-01T22:14:09.602Z,20.00
2019-06-01T22:16:39.886Z,20.00
2019-06-01T22:19:11.530Z,19.90
2019-06-01T22:21:41.825Z,19.90
2019-06-01T22:24:12.232Z,19.80
2019-06-01T22:26:42.796Z,19.80
2019-06-01T22:29:13.141Z,19.80
2019-06-01T22:31:44.207Z,19.80
2019-06-01T22:34:15.467Z,19.80
2019-06-01T22:36:45.869Z,19.80
2019-06-01T22:39:16.291Z,19.70
2019-06-01T22:41:46.485Z,19.70
2019-06-01T22:44:16.671Z,19.60
2019-06-01T22:46:46.885Z,19.60
2019-06-01T22:49:17.248Z,19.60
2019-06-01T22:51:47.556Z,19.60
2019-06-01T22:54:18.326Z,19.50
2019-06-01T22:56:48.733Z,19.40
2019-06-01T22:59:20.365Z,19.40
2019-06-01T23:01:51.373Z,19.40
2019-06-01T23:04:22.658Z,19.30
2019-06-01T23:06:53.571Z,19.30
2019-06-01T23:09:25.413Z,19.30
2019-06-01T23:11:55.718Z,19.30
2019-06-01T23:14:27.320Z,19.30
2019-06-01T23:16:57.551Z,19.20
2019-06-01T23:19:28.091Z,19.20
2019-06-01T23:21:58.347Z,19.20
2019-06-01T23:24:28.699Z,19.20
2019-06-01T23:26:58.915Z,19.20
2019-06-01T23:29:30.135Z,19.20
2019-06-01T23:32:00.614Z,19.10
2019-06-01T23:34:31.179Z,19.10
2019-06-01T23:37:01.424Z,19.00
2019-06-01T23:39:32.988Z,19.00
2019-06-01T23:42:03.874Z,18.90
2019-06-01T23:44:35.150Z,18.80
2019-06-01T23:47:05.759Z,18.80
2019-06-01T23:49:36.044Z,18.80
2019-06-01T23:52:06.566Z,18.80
2019-06-01T23:54:37.090Z,18.80
2019-06-01T23:57:07.474Z,18.70
2019-06-01T23:59:37.825Z,18.70
